sensor_id;sensor_type;location;lat;lon;timestamp;temperature;humidity
11399;DHT22;5755;48.116;11.608;2022-08-03T00:01:03;17.90;91.50
11399;DHT22;5755;48.116;11.608;2022-08-03T00:03:30;18.00;91.40
11399;DHT22;5755;48.116;11.608;2022-08-03T00:05:57;18.00;91.60
11399;DHT22;5755;48.116;11.608;2022-08-03T00:08:25;18.10;91.80
11399;DHT22;5755;48.116;11.608;2022-08-03T00:10:52;18.20;90.60
11399;DHT22;5755;48.116;11.608;2022-08-03T00:13:25;18.20;90.30
11399;DHT22;5755;48.116;11.608;2022-08-03T00:15:54;18.20;90.70
11399;DHT22;5755;48.116;11.608;2022-08-03T00:18:21;18.10;90.50
11399;DHT22;5755;48.116;11.608;2022-08-03T00:20:48;18.10;90.50
11399;DHT22;5755;48.116;11.608;2022-08-03T00:23:15;17.90;90.30
11399;DHT22;5755;48.116;11.608;2022-08-03T00:25:43;17.80;90.90
11399;DHT22;5755;48.116;11.608;2022-08-03T00:28:10;17.70;90.90
11399;DHT22;5755;48.116;11.608;2022-08-03T00:30:37;17.50;91.20
11399;DHT22;5755;48.116;11.608;2022-08-03T00:33:04;17.50;91.60
11399;DHT22;5755;48.116;11.608;2022-08-03T00:35:30;17.50;91.70
11399;DHT22;5755;48.116;11.608;2022-08-03T00:38:00;17.40;92.00
11399;DHT22;5755;48.116;11.608;2022-08-03T00:40:27;17.40;92.00
11399;DHT22;5755;48.116;11.608;2022-08-03T00:42:56;17.30;92.00
11399;DHT22;5755;48.116;11.608;2022-08-03T00:45:25;17.30;92.00
11399;DHT22;5755;48.116;11.608;2022-08-03T00:47:53;17.30;92.00
11399;DHT22;5755;48.116;11.608;2022-08-03T00:50:21;17.30;92.00
11399;DHT22;5755;48.116;11.608;2022-08-03T00:52:49;17.30;92.00
11399;DHT22;5755;48.116;11.608;2022-08-03T00:55:17;17.20;92.10
11399;DHT22;5755;48.116;11.608;2022-08-03T00:57:44;17.20;92.00
11399;DHT22;5755;48.116;11.608;2022-08-03T01:00:16;17.30;92.00
11399;DHT22;5755;48.116;11.608;2022-08-03T01:02:43;17.30;92.00
11399;DHT22;5755;48.116;11.608;2022-08-03T01:05:10;17.30;92.00
11399;DHT22;5755;48.116;11.608;2022-08-03T01:07:45;17.40;92.00
11399;DHT22;5755;48.116;11.608;2022-08-03T01:10:26;17.40;92.00
11399;DHT22;5755;48.116;11.608;2022-08-03T01:12:58;17.40;91.50
11399;DHT22;5755;48.116;11.608;2022-08-03T01:15:38;17.30;91.60
11399;DHT22;5755;48.116;11.608;2022-08-03T01:18:17;17.30;91.90
11399;DHT22;5755;48.116;11.608;2022-08-03T01:20:48;17.20;92.00
11399;DHT22;5755;48.116;11.608;2022-08-03T01:23:44;17.10;92.00
11399;DHT22;5755;48.116;11.608;2022-08-03T01:26:34;17.00;91.90
11399;DHT22;5755;48.116;11.608;2022-08-03T01:29:13;17.00;92.40
11399;DHT22;5755;48.116;11.608;2022-08-03T01:31:51;17.00;92.50
11399;DHT22;5755;48.116;11.608;2022-08-03T01:34:19;17.00;92.20
11399;DHT22;5755;48.116;11.608;2022-08-03T01:36:50;17.00;91.90
11399;DHT22;5755;48.116;11.608;2022-08-03T01:39:18;16.90;91.90
11399;DHT22;5755;48.116;11.608;2022-08-03T01:41:49;16.90;91.90
11399;DHT22;5755;48.116;11.608;2022-08-03T01:44:17;16.80;92.00
11399;DHT22;5755;48.116;11.608;2022-08-03T01:46:46;16.90;91.90
11399;DHT22;5755;48.116;11.608;2022-08-03T01:49:16;16.80;91.90
11399;DHT22;5755;48.116;11.608;2022-08-03T01:51:45;16.70;92.30
11399;DHT22;5755;48.116;11.608;2022-08-03T01:54:13;16.70;92.50
11399;DHT22;5755;48.116;11.608;2022-08-03T01:56:42;16.70;92.60
11399;DHT22;5755;48.116;11.608;2022-08-03T01:59:11;16.70;92.60
11399;DHT22;5755;48.116;11.608;2022-08-03T02:01:40;16.60;92.60
11399;DHT22;5755;48.116;11.608;2022-08-03T02:04:12;16.60;92.60
11399;DHT22;5755;48.116;11.608;2022-08-03T02:06:40;16.60;92.60
11399;DHT22;5755;48.116;11.608;2022-08-03T02:09:08;16.70;92.40
11399;DHT22;5755;48.116;11.608;2022-08-03T02:11:35;16.70;91.90
11399;DHT22;5755;48.116;11.608;2022-08-03T02:14:04;16.60;92.00
11399;DHT22;5755;48.116;11.608;2022-08-03T02:16:32;16.60;92.40
11399;DHT22;5755;48.116;11.608;2022-08-03T02:19:02;16.60;92.60
11399;DHT22;5755;48.116;11.608;2022-08-03T02:21:37;16.50;92.70
11399;DHT22;5755;48.116;11.608;2022-08-03T02:24:05;16.50;92.80
11399;DHT22;5755;48.116;11.608;2022-08-03T02:26:35;16.30;93.00
11399;DHT22;5755;48.116;11.608;2022-08-03T02:29:07;16.30;93.30
11399;DHT22;5755;48.116;11.608;2022-08-03T02:31:37;16.30;93.40
11399;DHT22;5755;48.116;11.608;2022-08-03T02:34:09;16.30;93.60
11399;DHT22;5755;48.116;11.608;2022-08-03T02:36:40;16.30;93.50
11399;DHT22;5755;48.116;11.608;2022-08-03T02:39:10;16.20;93.50
11399;DHT22;5755;48.116;11.608;2022-08-03T02:41:45;16.20;93.60
11399;DHT22;5755;48.116;11.608;2022-08-03T02:44:13;16.10;93.60
11399;DHT22;5755;48.116;11.608;2022-08-03T02:46:44;16.10;93.40
11399;DHT22;5755;48.116;11.608;2022-08-03T02:49:13;16.10;93.50
11399;DHT22;5755;48.116;11.608;2022-08-03T02:51:46;16.00;93.70
11399;DHT22;5755;48.116;11.608;2022-08-03T02:54:15;16.00;93.70
11399;DHT22;5755;48.116;11.608;2022-08-03T02:56:44;16.00;93.60
11399;DHT22;5755;48.116;11.608;2022-08-03T02:59:13;16.00;93.60
11399;DHT22;5755;48.116;11.608;2022-08-03T03:01:41;16.10;93.60
11399;DHT22;5755;48.116;11.608;2022-08-03T03:04:09;16.10;93.30
11399;DHT22;5755;48.116;11.608;2022-08-03T03:06:37;16.20;93.20
11399;DHT22;5755;48.116;11.608;2022-08-03T03:09:07;16.20;93.10
11399;DHT22;5755;48.116;11.608;2022-08-03T03:11:37;16.10;93.30
11399;DHT22;5755;48.116;11.608;2022-08-03T03:14:04;16.10;93.30
11399;DHT22;5755;48.116;11.608;2022-08-03T03:16:33;16.10;93.50
11399;DHT22;5755;48.116;11.608;2022-08-03T03:19:01;16.10;93.50
11399;DHT22;5755;48.116;11.608;2022-08-03T03:21:30;16.10;93.50
11399;DHT22;5755;48.116;11.608;2022-08-03T03:23:58;16.10;93.50
11399;DHT22;5755;48.116;11.608;2022-08-03T03:26:27;16.10;93.90
11399;DHT22;5755;48.116;11.608;2022-08-03T03:28:54;16.10;94.00
11399;DHT22;5755;48.116;11.608;2022-08-03T03:31:21;16.10;94.00
11399;DHT22;5755;48.116;11.608;2022-08-03T03:33:48;16.20;93.90
11399;DHT22;5755;48.116;11.608;2022-08-03T03:36:15;16.20;93.90
11399;DHT22;5755;48.116;11.608;2022-08-03T03:38:43;16.10;93.70
11399;DHT22;5755;48.116;11.608;2022-08-03T03:41:10;16.00;93.70
11399;DHT22;5755;48.116;11.608;2022-08-03T03:43:39;15.90;93.90
11399;DHT22;5755;48.116;11.608;2022-08-03T03:46:06;15.90;94.60
11399;DHT22;5755;48.116;11.608;2022-08-03T03:48:33;15.80;94.50
11399;DHT22;5755;48.116;11.608;2022-08-03T03:51:00;15.80;94.60
11399;DHT22;5755;48.116;11.608;2022-08-03T03:53:27;15.90;94.50
11399;DHT22;5755;48.116;11.608;2022-08-03T03:56:00;16.00;94.30
11399;DHT22;5755;48.116;11.608;2022-08-03T03:58:27;15.90;94.40
11399;DHT22;5755;48.116;11.608;2022-08-03T04:00:56;15.90;94.50
11399;DHT22;5755;48.116;11.608;2022-08-03T04:03:22;15.80;94.40
11399;DHT22;5755;48.116;11.608;2022-08-03T04:05:49;15.80;94.60
11399;DHT22;5755;48.116;11.608;2022-08-03T04:08:34;15.80;94.60
11399;DHT22;5755;48.116;11.608;2022-08-03T04:11:20;15.90;94.60
11399;DHT22;5755;48.116;11.608;2022-08-03T04:13:50;15.90;94.30
11399;DHT22;5755;48.116;11.608;2022-08-03T04:16:22;16.00;94.00
11399;DHT22;5755;48.116;11.608;2022-08-03T04:19:02;16.00;94.00
11399;DHT22;5755;48.116;11.608;2022-08-03T04:21:31;16.00;93.90
11399;DHT22;5755;48.116;11.608;2022-08-03T04:24:03;16.00;93.90
11399;DHT22;5755;48.116;11.608;2022-08-03T04:26:35;15.90;94.20
11399;DHT22;5755;48.116;11.608;2022-08-03T04:29:03;16.00;94.00
11399;DHT22;5755;48.116;11.608;2022-08-03T04:31:33;16.00;94.00
11399;DHT22;5755;48.116;11.608;2022-08-03T04:34:01;16.00;94.10
11399;DHT22;5755;48.116;11.608;2022-08-03T04:36:31;16.00;94.20
11399;DHT22;5755;48.116;11.608;2022-08-03T04:39:01;16.10;94.10
11399;DHT22;5755;48.116;11.608;2022-08-03T04:41:30;16.10;93.80
11399;DHT22;5755;48.116;11.608;2022-08-03T04:43:59;16.20;93.20
11399;DHT22;5755;48.116;11.608;2022-08-03T04:46:28;16.20;93.00
11399;DHT22;5755;48.116;11.608;2022-08-03T04:49:02;16.20;93.00
11399;DHT22;5755;48.116;11.608;2022-08-03T04:51:30;16.30;92.80
11399;DHT22;5755;48.116;11.608;2022-08-03T04:54:00;16.40;92.70
11399;DHT22;5755;48.116;11.608;2022-08-03T04:56:27;16.40;92.50
11399;DHT22;5755;48.116;11.608;2022-08-03T04:58:54;16.50;92.20
11399;DHT22;5755;48.116;11.608;2022-08-03T05:01:24;16.50;91.80
11399;DHT22;5755;48.116;11.608;2022-08-03T05:03:51;16.60;91.90
11399;DHT22;5755;48.116;11.608;2022-08-03T05:06:19;16.60;92.50
11399;DHT22;5755;48.116;11.608;2022-08-03T05:08:46;17.00;91.90
11399;DHT22;5755;48.116;11.608;2022-08-03T05:11:13;17.40;90.50
11399;DHT22;5755;48.116;11.608;2022-08-03T05:13:40;17.50;89.30
11399;DHT22;5755;48.116;11.608;2022-08-03T05:16:07;17.60;89.30
11399;DHT22;5755;48.116;11.608;2022-08-03T05:18:34;17.70;86.60
11399;DHT22;5755;48.116;11.608;2022-08-03T05:21:01;17.70;86.40
11399;DHT22;5755;48.116;11.608;2022-08-03T05:23:29;17.70;87.60
11399;DHT22;5755;48.116;11.608;2022-08-03T05:25:56;17.90;87.00
11399;DHT22;5755;48.116;11.608;2022-08-03T05:28:23;18.10;86.00
11399;DHT22;5755;48.116;11.608;2022-08-03T05:30:50;18.40;85.90
11399;DHT22;5755;48.116;11.608;2022-08-03T05:33:17;18.80;80.00
11399;DHT22;5755;48.116;11.608;2022-08-03T05:35:43;19.00;80.10
11399;DHT22;5755;48.116;11.608;2022-08-03T05:38:10;19.30;78.20
11399;DHT22;5755;48.116;11.608;2022-08-03T05:40:38;19.30;77.00
11399;DHT22;5755;48.116;11.608;2022-08-03T05:43:05;19.50;76.40
11399;DHT22;5755;48.116;11.608;2022-08-03T05:45:32;19.40;73.80
11399;DHT22;5755;48.116;11.608;2022-08-03T05:47:59;19.30;75.50
11399;DHT22;5755;48.116;11.608;2022-08-03T05:50:26;19.10;76.20
11399;DHT22;5755;48.116;11.608;2022-08-03T05:52:54;19.10;77.90
11399;DHT22;5755;48.116;11.608;2022-08-03T05:55:22;19.40;76.30
11399;DHT22;5755;48.116;11.608;2022-08-03T05:57:50;19.50;75.10
11399;DHT22;5755;48.116;11.608;2022-08-03T06:00:17;19.80;75.00
11399;DHT22;5755;48.116;11.608;2022-08-03T06:02:48;20.00;72.70
11399;DHT22;5755;48.116;11.608;2022-08-03T06:05:15;20.20;71.20
11399;DHT22;5755;48.116;11.608;2022-08-03T06:07:42;20.20;70.00
11399;DHT22;5755;48.116;11.608;2022-08-03T06:10:09;20.20;65.60
11399;DHT22;5755;48.116;11.608;2022-08-03T06:12:36;20.20;66.20
11399;DHT22;5755;48.116;11.608;2022-08-03T06:15:08;20.10;68.00
11399;DHT22;5755;48.116;11.608;2022-08-03T06:17:43;20.10;70.00
11399;DHT22;5755;48.116;11.608;2022-08-03T06:20:11;20.20;67.70
11399;DHT22;5755;48.116;11.608;2022-08-03T06:22:37;20.20;68.30
11399;DHT22;5755;48.116;11.608;2022-08-03T06:25:05;20.20;66.40
11399;DHT22;5755;48.116;11.608;2022-08-03T06:27:32;20.10;68.60
11399;DHT22;5755;48.116;11.608;2022-08-03T06:30:09;20.20;70.20
11399;DHT22;5755;48.116;11.608;2022-08-03T06:32:41;20.20;71.00
11399;DHT22;5755;48.116;11.608;2022-08-03T06:35:09;20.20;66.40
11399;DHT22;5755;48.116;11.608;2022-08-03T06:37:43;20.30;67.20
11399;DHT22;5755;48.116;11.608;2022-08-03T06:40:11;20.40;66.10
11399;DHT22;5755;48.116;11.608;2022-08-03T06:42:38;20.40;61.30
11399;DHT22;5755;48.116;11.608;2022-08-03T06:45:08;20.60;63.00
11399;DHT22;5755;48.116;11.608;2022-08-03T06:47:35;20.80;61.40
11399;DHT22;5755;48.116;11.608;2022-08-03T06:50:02;21.00;59.30
11399;DHT22;5755;48.116;11.608;2022-08-03T06:52:29;21.00;56.90
11399;DHT22;5755;48.116;11.608;2022-08-03T06:54:56;21.00;56.80
11399;DHT22;5755;48.116;11.608;2022-08-03T06:57:23;21.10;56.90
11399;DHT22;5755;48.116;11.608;2022-08-03T06:59:50;21.20;55.80
11399;DHT22;5755;48.116;11.608;2022-08-03T07:02:18;21.30;54.80
11399;DHT22;5755;48.116;11.608;2022-08-03T07:04:46;21.30;55.60
11399;DHT22;5755;48.116;11.608;2022-08-03T07:07:13;21.40;57.20
11399;DHT22;5755;48.116;11.608;2022-08-03T07:09:39;21.40;57.20
11399;DHT22;5755;48.116;11.608;2022-08-03T07:12:06;21.50;53.90
11399;DHT22;5755;48.116;11.608;2022-08-03T07:14:34;21.70;53.60
11399;DHT22;5755;48.116;11.608;2022-08-03T07:17:00;21.80;50.90
11399;DHT22;5755;48.116;11.608;2022-08-03T07:19:29;21.90;48.70
11399;DHT22;5755;48.116;11.608;2022-08-03T07:21:55;22.20;49.10
11399;DHT22;5755;48.116;11.608;2022-08-03T07:24:23;22.30;47.80
11399;DHT22;5755;48.116;11.608;2022-08-03T07:26:50;22.30;52.90
11399;DHT22;5755;48.116;11.608;2022-08-03T07:29:17;22.40;52.60
11399;DHT22;5755;48.116;11.608;2022-08-03T07:31:44;22.50;51.70
11399;DHT22;5755;48.116;11.608;2022-08-03T07:34:11;22.50;47.70
11399;DHT22;5755;48.116;11.608;2022-08-03T07:36:44;22.60;47.00
11399;DHT22;5755;48.116;11.608;2022-08-03T07:39:10;22.80;42.50
11399;DHT22;5755;48.116;11.608;2022-08-03T07:41:42;23.00;41.10
11399;DHT22;5755;48.116;11.608;2022-08-03T07:44:09;23.10;41.50
11399;DHT22;5755;48.116;11.608;2022-08-03T07:46:36;23.10;39.40
11399;DHT22;5755;48.116;11.608;2022-08-03T07:49:03;23.30;40.10
11399;DHT22;5755;48.116;11.608;2022-08-03T07:51:30;23.40;41.50
11399;DHT22;5755;48.116;11.608;2022-08-03T07:53:58;23.50;39.40
11399;DHT22;5755;48.116;11.608;2022-08-03T07:56:25;23.50;39.20
11399;DHT22;5755;48.116;11.608;2022-08-03T07:58:53;23.60;39.10
11399;DHT22;5755;48.116;11.608;2022-08-03T08:01:20;23.80;36.90
11399;DHT22;5755;48.116;11.608;2022-08-03T08:03:48;23.90;38.70
11399;DHT22;5755;48.116;11.608;2022-08-03T08:06:18;24.00;35.40
11399;DHT22;5755;48.116;11.608;2022-08-03T08:08:45;24.00;39.70
11399;DHT22;5755;48.116;11.608;2022-08-03T08:11:14;24.10;35.50
11399;DHT22;5755;48.116;11.608;2022-08-03T08:13:41;24.20;35.60
11399;DHT22;5755;48.116;11.608;2022-08-03T08:16:08;24.20;35.60
11399;DHT22;5755;48.116;11.608;2022-08-03T08:18:35;24.30;35.70
11399;DHT22;5755;48.116;11.608;2022-08-03T08:21:01;24.30;35.70
11399;DHT22;5755;48.116;11.608;2022-08-03T08:23:28;24.40;35.80
11399;DHT22;5755;48.116;11.608;2022-08-03T08:25:55;24.50;34.80
11399;DHT22;5755;48.116;11.608;2022-08-03T08:28:24;24.70;35.40
11399;DHT22;5755;48.116;11.608;2022-08-03T08:30:50;24.80;37.20
11399;DHT22;5755;48.116;11.608;2022-08-03T08:33:18;24.90;30.40
11399;DHT22;5755;48.116;11.608;2022-08-03T08:35:45;24.90;33.00
11399;DHT22;5755;48.116;11.608;2022-08-03T08:38:11;25.10;31.80
11399;DHT22;5755;48.116;11.608;2022-08-03T08:40:42;25.20;31.00
11399;DHT22;5755;48.116;11.608;2022-08-03T08:43:09;25.40;29.90
11399;DHT22;5755;48.116;11.608;2022-08-03T08:45:39;25.60;26.40
11399;DHT22;5755;48.116;11.608;2022-08-03T08:48:06;25.90;25.00
11399;DHT22;5755;48.116;11.608;2022-08-03T08:50:37;26.10;25.10
11399;DHT22;5755;48.116;11.608;2022-08-03T08:53:06;26.50;22.60
11399;DHT22;5755;48.116;11.608;2022-08-03T08:55:33;27.40;20.60
11399;DHT22;5755;48.116;11.608;2022-08-03T08:58:03;28.50;18.00
11399;DHT22;5755;48.116;11.608;2022-08-03T09:00:30;30.20;15.90
11399;DHT22;5755;48.116;11.608;2022-08-03T09:02:59;31.80;14.10
11399;DHT22;5755;48.116;11.608;2022-08-03T09:05:27;33.40;11.20
11399;DHT22;5755;48.116;11.608;2022-08-03T09:07:57;34.90;7.20
11399;DHT22;5755;48.116;11.608;2022-08-03T09:10:24;36.30;5.70
11399;DHT22;5755;48.116;11.608;2022-08-03T09:12:54;37.00;4.60
11399;DHT22;5755;48.116;11.608;2022-08-03T09:15:23;37.10;4.20
11399;DHT22;5755;48.116;11.608;2022-08-03T09:17:52;38.20;1.80
11399;DHT22;5755;48.116;11.608;2022-08-03T09:20:22;37.50;2.90
11399;DHT22;5755;48.116;11.608;2022-08-03T09:22:55;38.20;1.20
11399;DHT22;5755;48.116;11.608;2022-08-03T09:25:31;38.10;1.10
11399;DHT22;5755;48.116;11.608;2022-08-03T09:28:07;37.90;1.00
11399;DHT22;5755;48.116;11.608;2022-08-03T09:30:35;37.90;1.20
11399;DHT22;5755;48.116;11.608;2022-08-03T09:33:03;38.00;1.10
11399;DHT22;5755;48.116;11.608;2022-08-03T09:35:32;38.30;1.30
11399;DHT22;5755;48.116;11.608;2022-08-03T09:38:10;38.10;1.20
11399;DHT22;5755;48.116;11.608;2022-08-03T09:40:37;38.20;1.20
11399;DHT22;5755;48.116;11.608;2022-08-03T09:43:05;38.10;1.20
11399;DHT22;5755;48.116;11.608;2022-08-03T09:45:33;37.90;1.80
11399;DHT22;5755;48.116;11.608;2022-08-03T09:48:22;38.00;1.10
11399;DHT22;5755;48.116;11.608;2022-08-03T09:50:51;38.00;1.10
11399;DHT22;5755;48.116;11.608;2022-08-03T09:53:19;37.10;1.30
11399;DHT22;5755;48.116;11.608;2022-08-03T09:55:53;37.40;1.00
11399;DHT22;5755;48.116;11.608;2022-08-03T09:58:21;38.10;1.20
11399;DHT22;5755;48.116;11.608;2022-08-03T10:00:57;39.10;1.00
11399;DHT22;5755;48.116;11.608;2022-08-03T10:03:27;38.30;1.30
11399;DHT22;5755;48.116;11.608;2022-08-03T10:05:57;38.00;1.10
11399;DHT22;5755;48.116;11.608;2022-08-03T10:08:24;38.80;1.00
11399;DHT22;5755;48.116;11.608;2022-08-03T10:10:52;38.80;1.50
11399;DHT22;5755;48.116;11.608;2022-08-03T10:13:20;38.00;1.10
11399;DHT22;5755;48.116;11.608;2022-08-03T10:15:47;38.10;1.10
11399;DHT22;5755;48.116;11.608;2022-08-03T10:18:14;38.90;1.00
11399;DHT22;5755;48.116;11.608;2022-08-03T10:20:45;38.90;1.00
11399;DHT22;5755;48.116;11.608;2022-08-03T10:23:18;38.60;1.00
11399;DHT22;5755;48.116;11.608;2022-08-03T10:25:52;37.80;1.00
11399;DHT22;5755;48.116;11.608;2022-08-03T10:28:20;36.80;1.10
11399;DHT22;5755;48.116;11.608;2022-08-03T10:30:50;37.20;2.60
11399;DHT22;5755;48.116;11.608;2022-08-03T10:33:19;37.20;1.00
11399;DHT22;5755;48.116;11.608;2022-08-03T10:35:46;37.30;1.00
11399;DHT22;5755;48.116;11.608;2022-08-03T10:38:19;36.20;4.40
11399;DHT22;5755;48.116;11.608;2022-08-03T10:40:49;37.10;1.80
11399;DHT22;5755;48.116;11.608;2022-08-03T10:43:20;36.60;2.80
11399;DHT22;5755;48.116;11.608;2022-08-03T10:45:48;36.70;1.00
11399;DHT22;5755;48.116;11.608;2022-08-03T10:48:17;36.50;3.60
11399;DHT22;5755;48.116;11.608;2022-08-03T10:50:45;35.80;4.30
11399;DHT22;5755;48.116;11.608;2022-08-03T10:53:12;35.70;4.30
11399;DHT22;5755;48.116;11.608;2022-08-03T10:55:42;36.50;1.00
11399;DHT22;5755;48.116;11.608;2022-08-03T10:58:59;37.10;1.00
11399;DHT22;5755;48.116;11.608;2022-08-03T11:01:48;36.20;2.70
11399;DHT22;5755;48.116;11.608;2022-08-03T11:04:18;35.70;5.20
11399;DHT22;5755;48.116;11.608;2022-08-03T11:06:45;35.80;2.70
11399;DHT22;5755;48.116;11.608;2022-08-03T11:09:17;36.70;1.00
11399;DHT22;5755;48.116;11.608;2022-08-03T11:11:46;36.30;1.00
11399;DHT22;5755;48.116;11.608;2022-08-03T11:14:15;34.80;3.10
11399;DHT22;5755;48.116;11.608;2022-08-03T11:16:45;34.40;3.40
11399;DHT22;5755;48.116;11.608;2022-08-03T11:19:14;34.10;5.50
11399;DHT22;5755;48.116;11.608;2022-08-03T11:21:55;33.30;7.70
11399;DHT22;5755;48.116;11.608;2022-08-03T11:24:57;32.60;5.60
11399;DHT22;5755;48.116;11.608;2022-08-03T11:27:26;32.40;6.80
11399;DHT22;5755;48.116;11.608;2022-08-03T11:29:57;32.10;5.30
11399;DHT22;5755;48.116;11.608;2022-08-03T11:32:49;32.10;8.00
11399;DHT22;5755;48.116;11.608;2022-08-03T11:35:18;32.30;6.60
11399;DHT22;5755;48.116;11.608;2022-08-03T11:38:00;32.20;7.00
11399;DHT22;5755;48.116;11.608;2022-08-03T11:40:33;32.30;6.50
11399;DHT22;5755;48.116;11.608;2022-08-03T11:43:02;32.20;5.90
11399;DHT22;5755;48.116;11.608;2022-08-03T11:45:30;31.70;6.50
11399;DHT22;5755;48.116;11.608;2022-08-03T11:47:57;31.50;7.70
11399;DHT22;5755;48.116;11.608;2022-08-03T11:50:25;31.60;8.60
11399;DHT22;5755;48.116;11.608;2022-08-03T11:52:55;31.70;5.70
11399;DHT22;5755;48.116;11.608;2022-08-03T11:55:22;31.90;7.90
11399;DHT22;5755;48.116;11.608;2022-08-03T11:57:49;32.00;5.80
11399;DHT22;5755;48.116;11.608;2022-08-03T12:00:28;32.10;5.60
11399;DHT22;5755;48.116;11.608;2022-08-03T12:02:57;31.90;5.20
11399;DHT22;5755;48.116;11.608;2022-08-03T12:05:44;32.00;5.70
11399;DHT22;5755;48.116;11.608;2022-08-03T12:08:12;32.00;8.00
11399;DHT22;5755;48.116;11.608;2022-08-03T12:10:43;32.00;5.70
11399;DHT22;5755;48.116;11.608;2022-08-03T12:13:11;31.90;6.30
11399;DHT22;5755;48.116;11.608;2022-08-03T12:15:50;31.80;5.70
11399;DHT22;5755;48.116;11.608;2022-08-03T12:18:18;31.60;6.00
11399;DHT22;5755;48.116;11.608;2022-08-03T12:20:45;31.50;5.30
11399;DHT22;5755;48.116;11.608;2022-08-03T12:23:12;31.50;5.90
11399;DHT22;5755;48.116;11.608;2022-08-03T12:25:41;31.60;4.10
11399;DHT22;5755;48.116;11.608;2022-08-03T12:28:15;31.50;5.50
11399;DHT22;5755;48.116;11.608;2022-08-03T12:30:46;31.70;4.80
11399;DHT22;5755;48.116;11.608;2022-08-03T12:33:21;31.60;4.90
11399;DHT22;5755;48.116;11.608;2022-08-03T12:36:00;31.70;5.00
11399;DHT22;5755;48.116;11.608;2022-08-03T12:38:29;31.70;6.50
11399;DHT22;5755;48.116;11.608;2022-08-03T12:40:58;31.60;4.50
11399;DHT22;5755;48.116;11.608;2022-08-03T12:43:26;31.70;4.40
11399;DHT22;5755;48.116;11.608;2022-08-03T12:46:10;31.60;4.60
11399;DHT22;5755;48.116;11.608;2022-08-03T12:51:55;31.70;5.20
11399;DHT22;5755;48.116;11.608;2022-08-03T12:54:24;31.50;5.80
11399;DHT22;5755;48.116;11.608;2022-08-03T12:56:59;31.60;5.10
11399;DHT22;5755;48.116;11.608;2022-08-03T12:59:28;31.50;5.20
11399;DHT22;5755;48.116;11.608;2022-08-03T13:01:56;31.50;5.30
11399;DHT22;5755;48.116;11.608;2022-08-03T13:04:27;31.50;5.40
11399;DHT22;5755;48.116;11.608;2022-08-03T13:06:58;31.60;5.00
11399;DHT22;5755;48.116;11.608;2022-08-03T13:09:26;31.70;4.70
11399;DHT22;5755;48.116;11.608;2022-08-03T13:12:07;31.70;4.10
11399;DHT22;5755;48.116;11.608;2022-08-03T13:14:34;31.50;4.90
11399;DHT22;5755;48.116;11.608;2022-08-03T13:17:03;31.50;3.50
11399;DHT22;5755;48.116;11.608;2022-08-03T13:19:30;31.40;3.90
11399;DHT22;5755;48.116;11.608;2022-08-03T13:21:57;31.50;3.90
11399;DHT22;5755;48.116;11.608;2022-08-03T13:24:24;31.50;4.60
11399;DHT22;5755;48.116;11.608;2022-08-03T13:26:51;31.50;4.40
11399;DHT22;5755;48.116;11.608;2022-08-03T13:29:18;31.50;5.70
11399;DHT22;5755;48.116;11.608;2022-08-03T13:31:45;31.50;5.10
11399;DHT22;5755;48.116;11.608;2022-08-03T13:34:13;31.50;6.10
11399;DHT22;5755;48.116;11.608;2022-08-03T13:36:40;31.50;4.60
11399;DHT22;5755;48.116;11.608;2022-08-03T13:39:06;31.50;4.70
11399;DHT22;5755;48.116;11.608;2022-08-03T13:41:36;31.50;5.10
11399;DHT22;5755;48.116;11.608;2022-08-03T13:44:03;31.50;7.60
11399;DHT22;5755;48.116;11.608;2022-08-03T13:46:30;31.50;5.30
11399;DHT22;5755;48.116;11.608;2022-08-03T13:48:57;31.40;5.30
11399;DHT22;5755;48.116;11.608;2022-08-03T13:51:25;31.30;7.00
11399;DHT22;5755;48.116;11.608;2022-08-03T13:53:52;31.40;6.60
11399;DHT22;5755;48.116;11.608;2022-08-03T13:56:19;31.50;6.30
11399;DHT22;5755;48.116;11.608;2022-08-03T13:58:46;31.30;6.40
11399;DHT22;5755;48.116;11.608;2022-08-03T14:01:13;31.20;7.00
11399;DHT22;5755;48.116;11.608;2022-08-03T14:03:40;31.10;6.70
11399;DHT22;5755;48.116;11.608;2022-08-03T14:06:07;31.00;6.70
11399;DHT22;5755;48.116;11.608;2022-08-03T14:08:35;31.10;7.50
11399;DHT22;5755;48.116;11.608;2022-08-03T14:11:03;31.00;7.50
11399;DHT22;5755;48.116;11.608;2022-08-03T14:13:30;31.00;7.50
11399;DHT22;5755;48.116;11.608;2022-08-03T14:15:57;31.00;7.50
11399;DHT22;5755;48.116;11.608;2022-08-03T14:18:24;31.00;7.50
11399;DHT22;5755;48.116;11.608;2022-08-03T14:20:56;31.00;9.10
11399;DHT22;5755;48.116;11.608;2022-08-03T14:23:23;31.10;7.50
11399;DHT22;5755;48.116;11.608;2022-08-03T14:25:52;31.00;7.20
11399;DHT22;5755;48.116;11.608;2022-08-03T14:28:24;30.90;6.50
11399;DHT22;5755;48.116;11.608;2022-08-03T14:30:52;31.00;7.00
11399;DHT22;5755;48.116;11.608;2022-08-03T14:33:20;31.00;6.70
11399;DHT22;5755;48.116;11.608;2022-08-03T14:35:48;31.00;5.40
11399;DHT22;5755;48.116;11.608;2022-08-03T14:38:15;31.00;6.00
11399;DHT22;5755;48.116;11.608;2022-08-03T14:40:42;31.00;5.90
11399;DHT22;5755;48.116;11.608;2022-08-03T14:43:10;30.90;7.50
11399;DHT22;5755;48.116;11.608;2022-08-03T14:45:37;30.80;7.40
11399;DHT22;5755;48.116;11.608;2022-08-03T14:48:04;30.90;7.50
11399;DHT22;5755;48.116;11.608;2022-08-03T14:50:31;30.90;7.50
11399;DHT22;5755;48.116;11.608;2022-08-03T14:52:58;30.90;6.20
11399;DHT22;5755;48.116;11.608;2022-08-03T14:55:27;30.90;7.30
11399;DHT22;5755;48.116;11.608;2022-08-03T14:57:54;30.90;7.50
11399;DHT22;5755;48.116;11.608;2022-08-03T15:00:26;30.90;7.50
11399;DHT22;5755;48.116;11.608;2022-08-03T15:02:53;30.80;7.40
11399;DHT22;5755;48.116;11.608;2022-08-03T15:05:20;30.80;7.40
11399;DHT22;5755;48.116;11.608;2022-08-03T15:07:47;30.80;7.70
11399;DHT22;5755;48.116;11.608;2022-08-03T15:10:14;30.90;7.50
11399;DHT22;5755;48.116;11.608;2022-08-03T15:12:41;30.90;7.80
11399;DHT22;5755;48.116;11.608;2022-08-03T15:15:08;30.80;7.40
11399;DHT22;5755;48.116;11.608;2022-08-03T15:17:36;30.70;7.40
11399;DHT22;5755;48.116;11.608;2022-08-03T15:20:04;30.60;8.10
11399;DHT22;5755;48.116;11.608;2022-08-03T15:22:33;30.60;7.30
11399;DHT22;5755;48.116;11.608;2022-08-03T15:25:00;30.60;7.30
11399;DHT22;5755;48.116;11.608;2022-08-03T15:27:27;30.70;7.40
11399;DHT22;5755;48.116;11.608;2022-08-03T15:29:54;30.60;7.90
11399;DHT22;5755;48.116;11.608;2022-08-03T15:32:21;30.60;8.10
11399;DHT22;5755;48.116;11.608;2022-08-03T15:34:49;30.50;8.20
11399;DHT22;5755;48.116;11.608;2022-08-03T15:37:17;30.40;7.20
11399;DHT22;5755;48.116;11.608;2022-08-03T15:39:45;30.40;8.60
11399;DHT22;5755;48.116;11.608;2022-08-03T15:42:13;30.40;7.70
11399;DHT22;5755;48.116;11.608;2022-08-03T15:44:39;30.40;7.60
11399;DHT22;5755;48.116;11.608;2022-08-03T15:47:06;30.40;7.20
11399;DHT22;5755;48.116;11.608;2022-08-03T15:49:33;30.40;7.20
11399;DHT22;5755;48.116;11.608;2022-08-03T15:52:02;30.40;7.30
11399;DHT22;5755;48.116;11.608;2022-08-03T15:54:38;30.40;7.20